Time;durP1;ratioP1;P1;durP2;ratioP2;P2;SDS_P1;SDS_P2;PMS_P1;PMS_P2;Temp;Humidity;BMP_temperature;BMP_pressure;BME280_temperature;BME280_humidity;BME280_pressure;Samples;Min_cycle;Max_cycle;Signal;HPM_P1;HPM_P2
2022/10/19 00:01:15;;;;;;;0.20;0.20;;;;;;;8.00;100.00;97678.56;5018500;28;20047;-75
2022/10/19 00:04:02;;;;;;;0.10;0.10;;;;;;;8.01;100.00;97669.53;5029445;28;20045;-73
2022/10/19 00:06:48;;;;;;;0.10;0.10;;;;;;;7.96;100.00;97662.16;5027638;28;20284;-75
2022/10/19 00:09:33;;;;;;;0.20;0.20;;;;;;;7.95;100.00;97659.72;5029845;28;20128;-73
2022/10/19 00:12:19;;;;;;;0.10;0.10;;;;;;;7.98;100.00;97667.28;5029836;28;20429;-74
2022/10/19 00:15:06;;;;;;;0.10;0.10;;;;;;;7.98;100.00;97664.63;5018273;28;20049;-76
2022/10/19 00:17:52;;;;;;;0.25;0.20;;;;;;;7.93;100.00;97657.22;5025834;28;20033;-74
2022/10/19 00:20:38;;;;;;;0.10;0.10;;;;;;;7.92;100.00;97655.59;5011162;28;20587;-76
2022/10/19 00:23:24;;;;;;;0.10;0.10;;;;;;;7.79;100.00;97660.91;5023809;28;20048;-76
2022/10/19 00:26:11;;;;;;;0.10;0.10;;;;;;;7.76;100.00;97661.28;5013854;28;20049;-76
2022/10/19 00:28:57;;;;;;;0.15;0.15;;;;;;;7.70;100.00;97659.44;5027115;28;20139;-74
2022/10/19 00:31:43;;;;;;;0.10;0.10;;;;;;;7.80;100.00;97662.53;5027607;28;20191;-74
2022/10/19 00:34:28;;;;;;;0.10;0.10;;;;;;;7.77;100.00;97654.94;5027480;28;20371;-73
2022/10/19 00:37:14;;;;;;;0.10;0.10;;;;;;;7.64;100.00;97661.06;5027467;28;20037;-76
2022/10/19 00:40:00;;;;;;;0.10;0.10;;;;;;;7.59;100.00;97658.19;5024932;28;20477;-76
2022/10/19 00:42:46;;;;;;;0.20;0.20;;;;;;;7.63;100.00;97661.28;5024511;28;20044;-76
2022/10/19 00:45:32;;;;;;;0.10;0.10;;;;;;;7.56;100.00;97657.78;5025746;28;20036;-74
2022/10/19 00:48:24;;;;;;;0.10;0.10;;;;;;;7.60;100.00;97656.34;5023347;28;20516;-76
2022/10/19 00:51:11;;;;;;;0.10;0.10;;;;;;;7.58;100.00;97653.88;5025093;28;20284;-74
2022/10/19 00:53:57;;;;;;;0.10;0.10;;;;;;;7.53;100.00;97650.97;5011419;28;20090;-73
2022/10/19 00:56:44;;;;;;;0.20;0.20;;;;;;;7.51;100.00;97650.38;5024242;28;20317;-73
2022/10/19 00:59:31;;;;;;;0.10;0.10;;;;;;;7.48;100.00;97648.13;5017422;28;20805;-74
2022/10/19 01:02:17;;;;;;;0.20;0.20;;;;;;;7.34;100.00;97641.91;5023653;28;20253;-74
2022/10/19 01:05:03;;;;;;;0.13;0.13;;;;;;;7.33;100.00;97634.94;5026589;28;20037;-73
2022/10/19 01:07:49;;;;;;;0.10;0.10;;;;;;;7.33;100.00;97647.44;5023334;28;20046;-75
2022/10/19 01:11:04;;;;;;;0.20;0.20;;;;;;;7.38;100.00;97648.47;5026014;28;20429;-73
2022/10/19 01:14:15;;;;;;;0.10;0.10;;;;;;;7.30;100.00;97651.31;5017970;28;20643;-77
2022/10/19 01:17:22;;;;;;;0.20;0.20;;;;;;;7.24;100.00;97652.13;5025523;28;20051;-73
2022/10/19 01:20:26;;;;;;;0.10;0.10;;;;;;;7.14;100.00;97648.97;5028437;28;20036;-74
2022/10/19 01:23:42;;;;;;;0.10;0.10;;;;;;;7.11;100.00;97647.53;5022953;28;20553;-73
2022/10/19 01:26:49;;;;;;;0.10;0.10;;;;;;;7.14;100.00;97659.63;5025022;28;20199;-74
2022/10/19 01:29:38;;;;;;;0.10;0.10;;;;;;;7.14;100.00;97655.13;5024388;28;20164;-75
2022/10/19 01:32:37;;;;;;;0.10;0.10;;;;;;;7.07;100.00;97650.78;5021941;28;20045;-74
2022/10/19 01:35:41;;;;;;;0.10;0.10;;;;;;;7.07;100.00;97642.81;5026596;28;20128;-74
2022/10/19 01:38:59;;;;;;;0.10;0.10;;;;;;;7.04;100.00;97646.69;5020412;28;20041;-72
2022/10/19 01:41:50;;;;;;;0.20;0.20;;;;;;;6.99;100.00;97639.28;5022965;28;20045;-74
2022/10/19 01:44:49;;;;;;;0.10;0.10;;;;;;;6.95;100.00;97646.03;5024853;28;20086;-73
2022/10/19 01:47:45;;;;;;;0.20;0.20;;;;;;;7.00;100.00;97648.09;5026718;28;20478;-73
2022/10/19 01:50:44;;;;;;;0.30;0.20;;;;;;;6.98;100.00;97632.31;5018603;28;20037;-74
2022/10/19 01:53:38;;;;;;;0.20;0.20;;;;;;;6.93;100.00;97640.09;5023443;28;20136;-74
2022/10/19 01:56:27;;;;;;;0.20;0.20;;;;;;;6.99;100.00;97633.13;5024234;28;20038;-75
2022/10/19 01:59:15;;;;;;;0.10;0.10;;;;;;;6.93;100.00;97632.09;5020944;28;20353;-73
2022/10/19 02:02:04;;;;;;;0.30;0.20;;;;;;;6.97;100.00;97632.53;5024518;28;20046;-74
2022/10/19 02:04:52;;;;;;;0.10;0.10;;;;;;;6.99;100.00;97633.97;5022999;28;20077;-75
2022/10/19 02:07:44;;;;;;;0.10;0.10;;;;;;;6.99;100.00;97630.47;5021901;28;20118;-75
2022/10/19 02:10:32;;;;;;;0.10;0.10;;;;;;;6.90;100.00;97629.81;5024962;28;20045;-74
2022/10/19 02:13:20;;;;;;;0.10;0.10;;;;;;;6.83;100.00;97628.97;5023696;28;20072;-75
2022/10/19 02:16:13;;;;;;;0.20;0.17;;;;;;;6.87;100.00;97635.53;5026377;28;20232;-74
2022/10/19 02:19:00;;;;;;;0.10;0.10;;;;;;;6.89;100.00;97628.19;5023165;28;20553;-74
2022/10/19 02:21:47;;;;;;;0.10;0.10;;;;;;;6.86;100.00;97622.44;5023919;28;20242;-75
2022/10/19 02:24:33;;;;;;;0.10;0.10;;;;;;;6.86;100.00;97619.78;5015275;28;20049;-75
2022/10/19 02:27:19;;;;;;;0.10;0.10;;;;;;;6.78;100.00;97604.81;5008579;28;20249;-73
2022/10/19 02:30:06;;;;;;;0.15;0.10;;;;;;;6.77;100.00;97607.63;5009723;28;20670;-72
2022/10/19 02:32:53;;;;;;;0.20;0.20;;;;;;;6.65;100.00;97602.88;4996214;28;20058;-75
2022/10/19 02:35:39;;;;;;;0.13;0.10;;;;;;;6.61;100.00;97604.28;5010308;28;20037;-75
2022/10/19 02:38:26;;;;;;;0.13;0.13;;;;;;;6.53;100.00;97598.28;5011325;28;20041;-75
2022/10/19 02:41:20;;;;;;;0.10;0.10;;;;;;;6.58;100.00;97602.00;5010486;28;20054;-74
2022/10/19 02:44:18;;;;;;;0.10;0.10;;;;;;;6.54;100.00;97600.78;5010047;28;20041;-75
2022/10/19 02:47:11;;;;;;;0.10;0.10;;;;;;;6.44;100.00;97592.31;5009066;28;20080;-74
2022/10/19 02:49:57;;;;;;;0.30;0.20;;;;;;;6.47;100.00;97591.13;5004010;28;20527;-73
2022/10/19 02:52:43;;;;;;;0.10;0.10;;;;;;;6.48;100.00;97584.78;5009623;28;20455;-73
2022/10/19 02:55:29;;;;;;;0.25;0.20;;;;;;;6.49;100.00;97589.91;5008065;28;20046;-74
2022/10/19 02:58:15;;;;;;;0.10;0.10;;;;;;;6.56;100.00;97584.63;5009831;28;20529;-73
2022/10/19 03:01:01;;;;;;;0.15;0.15;;;;;;;6.66;100.00;97588.56;5009924;28;20046;-74
2022/10/19 03:03:48;;;;;;;0.20;0.20;;;;;;;6.71;100.00;97585.31;5001580;28;20247;-75
2022/10/19 03:06:33;;;;;;;0.10;0.10;;;;;;;6.78;100.00;97585.38;5003850;28;20045;-75
2022/10/19 03:09:19;;;;;;;0.10;0.10;;;;;;;6.76;100.00;97585.53;5011060;28;20509;-75
2022/10/19 03:12:05;;;;;;;0.10;0.10;;;;;;;6.70;100.00;97575.69;5009854;28;20037;-75
2022/10/19 03:14:52;;;;;;;0.20;0.20;;;;;;;6.66;100.00;97577.09;5010981;28;20088;-75
2022/10/19 03:17:38;;;;;;;0.28;0.20;;;;;;;6.66;100.00;97580.56;5009809;28;20777;-73
2022/10/19 03:20:24;;;;;;;0.10;0.10;;;;;;;6.60;100.00;97580.53;5010950;28;20428;-75
2022/10/19 03:23:09;;;;;;;0.10;0.10;;;;;;;6.51;100.00;97577.22;5008487;28;20053;-74
2022/10/19 03:25:55;;;;;;;0.15;0.15;;;;;;;6.48;100.00;97580.28;5011141;28;20409;-73
2022/10/19 03:28:41;;;;;;;0.10;0.10;;;;;;;6.46;100.00;97578.81;5006825;28;20433;-75
2022/10/19 03:31:27;;;;;;;0.10;0.10;;;;;;;6.49;100.00;97583.75;5007035;28;20482;-74
2022/10/19 03:34:13;;;;;;;0.32;0.20;;;;;;;6.46;100.00;97578.81;5005220;28;20631;-73
2022/10/19 03:36:58;;;;;;;0.10;0.10;;;;;;;6.38;100.00;97571.81;5002843;28;20096;-74
2022/10/19 03:39:45;;;;;;;0.10;0.10;;;;;;;6.37;100.00;97576.31;5008112;28;20045;-73
2022/10/19 03:42:31;;;;;;;0.10;0.10;;;;;;;6.33;100.00;97580.38;5006565;28;20045;-74
2022/10/19 03:45:17;;;;;;;0.20;0.10;;;;;;;6.28;100.00;97581.97;5006653;28;20422;-75
2022/10/19 03:48:03;;;;;;;0.20;0.10;;;;;;;6.27;100.00;97575.84;5006013;28;20474;-75
2022/10/19 03:50:58;;;;;;;0.20;0.10;;;;;;;6.23;100.00;97571.13;5007006;28;20064;-74
2022/10/19 03:53:45;;;;;;;0.20;0.15;;;;;;;6.27;100.00;97585.66;5001460;28;20375;-75
2022/10/19 03:56:32;;;;;;;0.10;0.10;;;;;;;6.23;100.00;97579.91;5006133;28;20132;-74
2022/10/19 03:59:18;;;;;;;0.20;0.20;;;;;;;6.25;100.00;97571.72;4993971;28;20128;-74
2022/10/19 04:02:04;;;;;;;0.15;0.13;;;;;;;6.23;100.00;97579.91;5006611;28;20053;-74
2022/10/19 04:04:50;;;;;;;0.20;0.20;;;;;;;6.16;100.00;97575.56;5006246;28;20046;-74
2022/10/19 04:07:35;;;;;;;0.10;0.10;;;;;;;6.04;100.00;97577.91;5002509;28;20238;-75
2022/10/19 04:10:21;;;;;;;0.25;0.15;;;;;;;6.02;100.00;97577.28;5007672;28;20129;-75
2022/10/19 04:13:07;;;;;;;0.13;0.10;;;;;;;5.97;100.00;97572.53;5004866;28;20045;-75
2022/10/19 04:15:53;;;;;;;0.10;0.10;;;;;;;6.07;100.00;97582.81;5011407;28;20136;-76
2022/10/19 04:18:39;;;;;;;0.15;0.10;;;;;;;6.05;100.00;97587.53;5005798;28;20038;-74
2022/10/19 04:21:28;;;;;;;0.13;0.13;;;;;;;6.00;100.00;97580.13;5008737;28;20359;-74
2022/10/19 04:24:17;;;;;;;0.10;0.10;;;;;;;6.00;100.00;97581.97;5009104;28;20057;-75
2022/10/19 04:27:02;;;;;;;0.10;0.10;;;;;;;6.04;100.00;97584.03;5025726;28;20065;-74
2022/10/19 04:29:48;;;;;;;0.32;0.20;;;;;;;6.08;100.00;97581.84;5028801;28;20521;-75
2022/10/19 04:32:34;;;;;;;0.10;0.10;;;;;;;6.13;100.00;97585.53;5026501;28;20049;-75
2022/10/19 04:35:20;;;;;;;0.20;0.20;;;;;;;6.16;100.00;97579.03;5024362;28;20072;-75
2022/10/19 04:38:06;;;;;;;0.10;0.10;;;;;;;6.17;100.00;97585.16;5028139;28;20120;-74
2022/10/19 04:40:52;;;;;;;0.20;0.20;;;;;;;6.15;100.00;97585.38;5027342;28;20170;-76
2022/10/19 04:43:39;;;;;;;0.10;0.10;;;;;;;6.09;100.00;97578.97;5022276;28;20041;-76
2022/10/19 04:46:26;;;;;;;0.10;0.10;;;;;;;6.14;100.00;97587.19;5027837;28;20049;-76
2022/10/19 04:49:11;;;;;;;0.10;0.10;;;;;;;6.18;100.00;97582.31;5024759;28;20624;-75
2022/10/19 04:51:57;;;;;;;0.17;0.17;;;;;;;6.25;100.00;97587.69;5027230;28;20497;-76
2022/10/19 04:54:43;;;;;;;0.10;0.10;;;;;;;6.29;100.00;97589.75;5015016;28;20063;-74
2022/10/19 04:57:29;;;;;;;0.20;0.20;;;;;;;6.20;100.00;97587.44;5026158;28;20041;-76
2022/10/19 05:00:15;;;;;;;0.20;0.20;;;;;;;6.15;100.00;97601.31;5024537;28;20300;-75
2022/10/19 05:03:01;;;;;;;0.10;0.10;;;;;;;6.05;100.00;97590.19;5024711;28;20512;-75
2022/10/19 05:05:47;;;;;;;0.10;0.10;;;;;;;6.09;100.00;97599.44;5027627;28;20719;-76
2022/10/19 05:08:33;;;;;;;0.20;0.20;;;;;;;6.04;100.00;97594.66;5025202;28;20136;-75
2022/10/19 05:11:20;;;;;;;0.10;0.10;;;;;;;6.02;100.00;97594.06;5028592;28;20049;-75
2022/10/19 05:14:05;;;;;;;0.13;0.13;;;;;;;6.05;100.00;97592.84;5023785;28;20048;-74
2022/10/19 05:16:52;;;;;;;0.10;0.10;;;;;;;6.04;100.00;97585.88;5024621;28;20257;-76
2022/10/19 05:19:37;;;;;;;0.17;0.13;;;;;;;6.08;100.00;97587.97;5024854;28;20911;-73
2022/10/19 05:22:23;;;;;;;0.25;0.10;;;;;;;6.12;100.00;97581.25;5026234;28;20041;-75
2022/10/19 05:25:10;;;;;;;0.20;0.20;;;;;;;6.18;100.00;97579.66;5024180;28;20401;-73
2022/10/19 05:27:55;;;;;;;0.20;0.20;;;;;;;6.23;100.00;97569.28;5027207;28;20497;-75
2022/10/19 05:30:41;;;;;;;0.20;0.20;;;;;;;6.23;100.00;97557.81;5026426;28;20041;-75
2022/10/19 05:33:27;;;;;;;0.20;0.17;;;;;;;6.27;100.00;97559.88;5026993;28;20524;-73
2022/10/19 05:36:18;;;;;;;0.15;0.15;;;;;;;6.29;100.00;97557.84;5026554;28;20041;-74
2022/10/19 05:39:07;;;;;;;0.20;0.20;;;;;;;6.33;100.00;97558.28;5025371;28;20120;-73
2022/10/19 05:41:53;;;;;;;0.20;0.20;;;;;;;6.29;100.00;97565.81;5025703;28;20633;-75
2022/10/19 05:44:38;;;;;;;0.10;0.10;;;;;;;6.29;100.00;97560.50;5025231;28;20063;-74
2022/10/19 05:47:24;;;;;;;0.15;0.10;;;;;;;6.26;100.00;97552.94;5022960;28;20037;-74
2022/10/19 05:50:10;;;;;;;0.10;0.10;;;;;;;6.26;100.00;97555.59;5012954;28;20663;-75
2022/10/19 05:52:56;;;;;;;0.10;0.10;;;;;;;6.30;100.00;97559.50;5024861;28;20467;-74
2022/10/19 05:55:42;;;;;;;0.30;0.20;;;;;;;6.29;100.00;97552.53;5016530;28;20049;-75
2022/10/19 05:58:28;;;;;;;0.10;0.10;;;;;;;6.24;100.00;97549.66;5024271;28;20041;-74
2022/10/19 06:01:17;;;;;;;0.20;0.20;;;;;;;6.25;100.00;97545.16;5022510;28;20050;-74
2022/10/19 06:04:04;;;;;;;0.10;0.10;;;;;;;6.25;100.00;97564.59;5029780;28;20362;-74
2022/10/19 06:06:50;;;;;;;0.10;0.10;;;;;;;6.25;100.00;97555.78;5029600;28;20078;-76
2022/10/19 06:09:36;;;;;;;0.10;0.10;;;;;;;6.26;100.00;97563.56;5032432;28;20037;-73
2022/10/19 06:12:21;;;;;;;0.10;0.10;;;;;;;6.24;100.00;97567.44;5029429;28;20045;-75
2022/10/19 06:15:08;;;;;;;0.20;0.20;;;;;;;6.18;100.00;97574.34;5030414;28;20323;-75
2022/10/19 06:17:53;;;;;;;0.17;0.17;;;;;;;6.18;100.00;97576.19;5026950;28;20278;-73
2022/10/19 06:20:41;;;;;;;0.10;0.10;;;;;;;6.13;100.00;97574.09;5032366;28;20480;-74
2022/10/19 06:23:27;;;;;;;0.10;0.10;;;;;;;6.10;100.00;97570.00;5026075;28;20187;-74
2022/10/19 06:29:15;;;;;;;0.35;0.20;;;;;;;6.11;100.00;97570.81;4951972;23;20093;-74
2022/10/19 06:32:01;;;;;;;0.10;0.10;;;;;;;6.10;100.00;97577.97;4905131;28;20051;-75
2022/10/19 06:34:47;;;;;;;0.10;0.10;;;;;;;6.13;100.00;97582.88;4930952;28;20628;-76
2022/10/19 06:37:33;;;;;;;0.20;0.20;;;;;;;6.16;100.00;97573.72;5055301;23;20079;-80
2022/10/19 06:40:18;;;;;;;0.10;0.10;;;;;;;6.16;100.00;97576.38;4932645;28;20206;-80
2022/10/19 06:43:04;;;;;;;0.20;0.20;;;;;;;6.16;100.00;97576.38;4934354;28;20093;-80
2022/10/19 06:45:50;;;;;;;0.15;0.15;;;;;;;6.12;100.00;97562.63;4928964;29;20134;-81
2022/10/19 06:48:36;;;;;;;0.25;0.20;;;;;;;6.13;100.00;97569.59;4937682;28;20039;-81
2022/10/19 06:51:14;;;;;;;0.20;0.20;;;;;;;6.14;100.00;97575.72;4993375;23;20580;-73
2022/10/19 06:53:59;;;;;;;0.20;0.20;;;;;;;6.24;100.00;97572.75;4937566;28;20537;-74
2022/10/19 06:56:45;;;;;;;0.10;0.10;;;;;;;6.24;100.00;97568.25;4936920;28;20039;-73
2022/10/19 06:59:31;;;;;;;0.20;0.20;;;;;;;6.26;100.00;97562.75;4938894;28;20070;-75
2022/10/19 07:02:17;;;;;;;0.10;0.10;;;;;;;6.30;100.00;97569.28;4937081;28;20289;-75
2022/10/19 07:05:03;;;;;;;0.10;0.10;;;;;;;6.32;100.00;97573.44;4934839;28;20511;-73
2022/10/19 07:07:49;;;;;;;0.28;0.20;;;;;;;6.42;100.00;97581.88;4940114;28;20047;-74
2022/10/19 07:10:35;;;;;;;0.13;0.13;;;;;;;6.47;100.00;97583.97;4936378;28;20118;-75
2022/10/19 07:13:22;;;;;;;0.20;0.20;;;;;;;6.53;100.00;97585.00;4934628;28;20074;-75
2022/10/19 07:16:10;;;;;;;0.20;0.17;;;;;;;6.59;100.00;97584.22;4936393;28;20048;-74
2022/10/19 07:18:56;;;;;;;0.10;0.10;;;;;;;6.66;100.00;97588.56;4936686;28;20058;-74
2022/10/19 07:21:43;;;;;;;0.10;0.10;;;;;;;6.75;100.00;97577.75;4937584;28;20035;-73
2022/10/19 07:24:29;;;;;;;0.10;0.10;;;;;;;6.80;100.00;97580.66;4934341;28;20043;-74
2022/10/19 07:27:15;;;;;;;0.20;0.20;;;;;;;6.84;100.00;97593.34;4936826;28;20053;-73
2022/10/19 07:30:01;;;;;;;0.10;0.10;;;;;;;6.89;100.00;97590.94;4935296;28;20514;-73
2022/10/19 07:32:47;;;;;;;0.20;0.20;;;;;;;6.93;100.00;97586.06;4933664;28;20095;-73
2022/10/19 07:35:32;;;;;;;0.20;0.20;;;;;;;6.99;100.00;97591.38;4935311;28;20158;-74
2022/10/19 07:38:18;;;;;;;0.10;0.10;;;;;;;6.97;100.00;97580.13;4933771;28;20122;-75
2022/10/19 07:41:07;;;;;;;0.20;0.10;;;;;;;7.02;100.00;97574.22;4934503;28;20039;-75
2022/10/19 07:43:56;;;;;;;0.10;0.10;;;;;;;7.01;100.00;97590.38;4937558;28;20451;-73
2022/10/19 07:46:42;;;;;;;0.20;0.20;;;;;;;7.09;100.00;97598.19;4934046;28;20047;-74
2022/10/19 07:49:28;;;;;;;0.20;0.10;;;;;;;7.13;100.00;97608.22;4934614;28;20051;-74
2022/10/19 07:52:14;;;;;;;0.10;0.10;;;;;;;7.16;100.00;97599.00;4935717;28;20039;-75
2022/10/19 07:55:00;;;;;;;0.10;0.10;;;;;;;7.22;100.00;97596.38;4936410;28;20047;-74
2022/10/19 07:57:47;;;;;;;0.20;0.20;;;;;;;7.35;100.00;97584.97;4930402;28;20051;-72
2022/10/19 08:00:33;;;;;;;0.10;0.10;;;;;;;7.46;100.00;97591.53;4933256;28;20059;-73
2022/10/19 08:03:19;;;;;;;0.10;0.10;;;;;;;7.52;100.00;97586.22;4933535;28;20047;-75
2022/10/19 08:06:10;;;;;;;0.15;0.13;;;;;;;7.61;100.00;97583.38;4933620;28;20044;-74
2022/10/19 08:08:59;;;;;;;0.20;0.20;;;;;;;7.72;100.00;97578.28;4935510;28;20395;-75
2022/10/19 08:11:45;;;;;;;0.20;0.20;;;;;;;7.82;100.00;97575.22;4933456;28;20412;-74
2022/10/19 08:14:31;;;;;;;0.10;0.10;;;;;;;8.01;100.00;97582.41;4932950;28;20062;-74
2022/10/19 08:17:17;;;;;;;0.22;0.17;;;;;;;8.13;100.00;97582.63;4896872;28;20432;-74
2022/10/19 08:20:05;;;;;;;0.10;0.10;;;;;;;8.20;100.00;97577.28;4920211;28;20254;-75
2022/10/19 08:22:51;;;;;;;0.10;0.10;;;;;;;8.29;100.00;97579.53;4935703;28;20640;-75
2022/10/19 08:25:36;;;;;;;0.15;0.15;;;;;;;8.38;100.00;97580.16;4937537;28;20137;-74
2022/10/19 08:28:22;;;;;;;0.10;0.10;;;;;;;8.51;100.00;97579.34;4931313;28;20055;-74
2022/10/19 08:31:20;;;;;;;0.10;0.10;;;;;;;8.61;100.00;97585.06;4931501;28;20170;-74
2022/10/19 08:34:07;;;;;;;0.20;0.20;;;;;;;8.73;100.00;97582.56;4934262;28;20042;-77
2022/10/19 08:36:53;;;;;;;0.13;0.13;;;;;;;8.84;100.00;97574.72;4933875;28;20078;-75
2022/10/19 08:39:38;;;;;;;0.13;0.13;;;;;;;8.96;100.00;97580.25;4933577;28;20058;-74
2022/10/19 08:42:48;;;;;;;0.17;0.15;;;;;;;9.08;100.00;97575.06;4931906;28;20054;-76
2022/10/19 08:46:02;;;;;;;0.10;0.10;;;;;;;9.29;100.00;97581.97;4934020;28;20038;-76
2022/10/19 08:48:47;;;;;;;0.28;0.20;;;;;;;9.45;100.00;97578.78;4934661;28;20047;-75
2022/10/19 08:51:38;;;;;;;0.10;0.10;;;;;;;9.61;100.00;97566.78;4934442;28;20064;-76
2022/10/19 08:54:34;;;;;;;0.20;0.20;;;;;;;9.61;100.00;97562.25;4933370;28;20047;-77
2022/10/19 08:57:52;;;;;;;0.10;0.10;;;;;;;9.70;100.00;97557.47;4932617;28;20042;-77
2022/10/19 09:00:46;;;;;;;0.20;0.20;;;;;;;9.85;100.00;97559.81;4933970;28;20265;-75
2022/10/19 09:03:45;;;;;;;0.10;0.10;;;;;;;10.05;100.00;97560.50;4931910;28;20059;-75
2022/10/19 09:06:47;;;;;;;0.10;0.10;;;;;;;10.15;100.00;97554.66;4933440;28;20447;-74
2022/10/19 09:09:39;;;;;;;0.10;0.10;;;;;;;10.23;100.00;97547.19;4931204;28;20070;-73
2022/10/19 09:12:55;;;;;;;0.30;0.30;;;;;;;10.27;100.00;97540.38;4933827;28;20036;-77
2022/10/19 09:15:44;;;;;;;0.10;0.10;;;;;;;10.39;100.00;97545.00;4935408;28;20047;-76
2022/10/19 09:18:33;;;;;;;0.10;0.10;;;;;;;10.62;100.00;97542.50;4902716;28;20054;-77
2022/10/19 09:21:24;;;;;;;0.10;0.10;;;;;;;10.72;100.00;97534.75;4930260;28;20050;-77
2022/10/19 09:24:22;;;;;;;0.10;0.10;;;;;;;10.78;100.00;97527.72;4931680;28;20043;-75
2022/10/19 09:27:35;;;;;;;0.15;0.15;;;;;;;11.02;100.00;97517.94;4932721;28;20122;-76
2022/10/19 09:30:22;;;;;;;0.20;0.20;;;;;;;11.26;100.00;97518.84;4928783;28;20107;-77
2022/10/19 09:33:17;;;;;;;0.20;0.20;;;;;;;11.53;100.00;97513.97;4928312;28;20051;-75
2022/10/19 09:36:05;;;;;;;0.20;0.20;;;;;;;11.76;100.00;97510.53;4054010;28;10000690;-76
2022/10/19 09:38:52;;;;;;;0.20;0.20;;;;;;;12.13;100.00;97506.63;4911613;28;20087;-74
2022/10/19 09:41:50;;;;;;;0.30;0.30;;;;;;;13.41;100.00;97503.94;4912867;29;20395;-77
2022/10/19 09:44:36;;;;;;;0.20;0.20;;;;;;;15.12;100.00;97514.91;4913629;29;20409;-77
2022/10/19 09:47:28;;;;;;;0.20;0.20;;;;;;;16.77;100.00;97508.81;4912631;29;20040;-74
2022/10/19 09:50:16;;;;;;;0.50;0.50;;;;;;;17.36;98.48;97505.81;4913760;29;20599;-74
2022/10/19 09:53:04;;;;;;;0.20;0.20;;;;;;;18.78;89.05;97509.66;4919271;29;20361;-75
2022/10/19 09:56:01;;;;;;;0.20;0.20;;;;;;;20.49;70.54;97499.94;4917260;29;20051;-74
2022/10/19 09:58:56;;;;;;;0.20;0.20;;;;;;;20.70;67.58;97495.94;4913975;28;20134;-75
2022/10/19 10:01:42;;;;;;;0.30;0.30;;;;;;;22.22;60.50;97481.34;4914350;29;20054;-77
2022/10/19 10:04:29;;;;;;;0.28;0.28;;;;;;;21.81;52.51;97492.88;4914124;28;20687;-76
2022/10/19 10:07:17;;;;;;;0.20;0.20;;;;;;;22.61;53.50;97482.84;4915185;29;20241;-75
2022/10/19 10:10:09;;;;;;;0.30;0.30;;;;;;;23.55;44.27;97480.38;4916101;29;20044;-75
2022/10/19 10:12:58;;;;;;;0.20;0.20;;;;;;;24.05;43.88;97471.34;4916923;29;20648;-74
2022/10/19 10:15:48;;;;;;;0.20;0.20;;;;;;;24.29;43.03;97479.22;4915166;29;20062;-76
2022/10/19 10:18:52;;;;;;;0.28;0.20;;;;;;;25.38;40.44;97479.53;4887186;28;20109;-75
2022/10/19 10:22:04;;;;;;;0.20;0.20;;;;;;;25.53;39.81;97479.88;4912185;29;20043;-76
2022/10/19 10:24:55;;;;;;;0.30;0.30;;;;;;;26.56;41.44;97477.44;4903027;29;20099;-75
2022/10/19 10:27:41;;;;;;;0.17;0.17;;;;;;;27.64;39.08;97483.38;4912920;29;20051;-77
2022/10/19 10:30:32;;;;;;;0.20;0.20;;;;;;;27.30;37.71;97479.69;4913716;29;20518;-75
2022/10/19 10:33:26;;;;;;;0.20;0.20;;;;;;;27.07;35.65;97473.69;4912401;29;20044;-76
2022/10/19 10:36:13;;;;;;;0.20;0.20;;;;;;;26.62;35.92;97471.44;4917436;29;20532;-75
2022/10/19 10:39:05;;;;;;;0.30;0.20;;;;;;;27.39;36.14;97480.47;4913795;28;20650;-78
2022/10/19 10:41:52;;;;;;;0.20;0.20;;;;;;;27.87;35.93;97481.91;4234907;29;10000489;-76
2022/10/19 10:44:45;;;;;;;0.20;0.20;;;;;;;28.33;33.58;97468.25;4914342;29;20341;-77
2022/10/19 10:47:31;;;;;;;0.10;0.10;;;;;;;27.65;33.81;97468.47;4912803;29;20051;-75
2022/10/19 10:50:24;;;;;;;0.10;0.10;;;;;;;28.27;33.09;97471.19;4917573;28;20511;-74
2022/10/19 10:53:42;;;;;;;0.20;0.20;;;;;;;26.08;34.76;97475.72;4911678;29;20039;-76
2022/10/19 10:56:32;;;;;;;0.10;0.10;;;;;;;24.26;43.16;97460.69;4914512;29;20056;-76
2022/10/19 10:59:25;;;;;;;0.10;0.10;;;;;;;26.65;35.75;97456.25;4916830;28;20063;-75
2022/10/19 11:02:25;;;;;;;0.10;0.10;;;;;;;28.02;37.56;97447.50;4913664;29;20081;-77
2022/10/19 11:05:18;;;;;;;0.20;0.20;;;;;;;29.74;31.76;97449.25;4914588;29;20055;-77
2022/10/19 11:08:19;;;;;;;0.10;0.10;;;;;;;29.44;30.43;97445.16;4918376;28;20040;-75
2022/10/19 11:11:25;;;;;;;0.20;0.20;;;;;;;29.32;30.90;97434.94;4917910;29;20044;-75
2022/10/19 11:14:36;;;;;;;0.10;0.10;;;;;;;27.65;32.07;97439.03;4918352;29;20554;-75
2022/10/19 11:17:27;;;;;;;0.20;0.20;;;;;;;27.22;33.27;97431.09;4888863;29;21795;-76
2022/10/19 11:20:17;;;;;;;0.10;0.10;;;;;;;28.73;34.95;97430.72;4914207;29;20043;-77
2022/10/19 11:23:22;;;;;;;0.10;0.10;;;;;;;27.88;33.32;97424.97;4905824;29;20134;-78
2022/10/19 11:26:45;;;;;;;0.10;0.10;;;;;;;28.16;33.21;97419.66;4919150;28;20403;-74
2022/10/19 11:29:47;;;;;;;0.10;0.10;;;;;;;28.99;31.07;97422.13;4913224;29;20048;-76
2022/10/19 11:32:51;;;;;;;0.10;0.10;;;;;;;30.72;30.07;97407.38;4915847;29;20051;-76
2022/10/19 11:35:53;;;;;;;0.45;0.20;;;;;;;29.31;28.98;97392.81;4915239;29;20052;-77
2022/10/19 11:38:39;;;;;;;0.10;0.10;;;;;;;31.20;31.33;97397.84;4910806;29;20415;-76
2022/10/19 11:41:43;;;;;;;0.10;0.10;;;;;;;30.02;29.71;97404.31;4916242;29;20050;-76
2022/10/19 11:44:28;;;;;;;0.10;0.10;;;;;;;31.57;28.89;97403.03;4911509;29;20500;-77
2022/10/19 11:47:50;;;;;;;0.10;0.10;;;;;;;30.97;28.94;97395.00;4914960;29;20051;-77
2022/10/19 11:50:47;;;;;;;0.13;0.13;;;;;;;30.60;29.77;97380.66;4917464;29;20106;-77
2022/10/19 11:53:38;;;;;;;0.10;0.10;;;;;;;33.03;27.21;97388.38;4914983;29;20110;-75
2022/10/19 11:56:43;;;;;;;0.10;0.10;;;;;;;32.70;27.14;97379.53;4915583;29;20035;-76
2022/10/19 11:59:58;;;;;;;0.05;0.05;;;;;;;32.86;26.70;97364.75;4909329;29;20099;-76
2022/10/19 12:02:59;;;;;;;0.10;0.10;;;;;;;33.21;27.02;97364.47;4911259;28;20048;-77
2022/10/19 12:06:08;;;;;;;0.10;0.10;;;;;;;32.57;29.03;97366.22;4913519;29;20182;-75
2022/10/19 12:09:19;;;;;;;0.10;0.10;;;;;;;32.22;27.43;97367.19;4902350;29;20050;-77
2022/10/19 12:12:29;;;;;;;0.10;0.10;;;;;;;32.83;25.80;97360.72;4914900;29;20567;-77
2022/10/19 12:15:22;;;;;;;0.10;0.10;;;;;;;32.01;28.20;97361.28;4916670;29;20055;-75
2022/10/19 12:18:34;;;;;;;0.10;0.10;;;;;;;29.96;29.76;97360.44;4889948;28;20040;-78
2022/10/19 12:21:35;;;;;;;0.10;0.10;;;;;;;30.78;28.65;97354.28;4917423;29;20053;-78
2022/10/19 12:24:24;;;;;;;0.10;0.10;;;;;;;31.17;29.82;97350.81;4917908;29;20138;-78
2022/10/19 12:27:14;;;;;;;0.10;0.10;;;;;;;31.10;29.12;97342.34;4917336;29;20048;-75
2022/10/19 12:30:16;;;;;;;0.10;0.10;;;;;;;31.56;28.16;97340.59;4918121;29;20091;-75
2022/10/19 12:33:14;;;;;;;0.20;0.20;;;;;;;32.65;27.04;97334.72;4917767;28;20325;-75
2022/10/19 12:36:21;;;;;;;0.10;0.10;;;;;;;32.25;26.98;97333.22;4920412;29;20749;-75
2022/10/19 12:39:16;;;;;;;0.10;0.10;;;;;;;33.07;26.46;97331.00;4912747;29;20143;-75
2022/10/19 12:42:13;;;;;;;0.10;0.10;;;;;;;31.75;27.17;97321.25;4917383;29;20412;-75
2022/10/19 12:45:17;;;;;;;0.10;0.10;;;;;;;30.64;28.58;97318.00;4917314;29;20488;-76
2022/10/19 12:48:13;;;;;;;0.10;0.10;;;;;;;29.13;28.85;97328.13;4918547;29;20427;-74
2022/10/19 12:51:02;;;;;;;0.10;0.10;;;;;;;27.67;32.45;97324.09;4921228;29;20083;-76
2022/10/19 12:53:48;;;;;;;0.10;0.10;;;;;;;26.20;34.12;97319.53;4916662;29;20052;-74
2022/10/19 12:56:47;;;;;;;0.10;0.10;;;;;;;27.73;33.14;97317.22;4916711;29;20110;-76
2022/10/19 12:59:35;;;;;;;0.10;0.10;;;;;;;28.43;32.77;97311.75;4919216;29;20046;-75
2022/10/19 13:02:29;;;;;;;0.10;0.10;;;;;;;28.51;31.83;97308.09;4902068;29;20051;-74
2022/10/19 13:05:21;;;;;;;0.10;0.10;;;;;;;29.06;30.95;97306.66;4913433;29;20254;-73
2022/10/19 13:08:08;;;;;;;0.10;0.10;;;;;;;28.04;29.74;97311.22;4911336;29;20040;-77
2022/10/19 13:11:06;;;;;;;0.10;0.10;;;;;;;28.69;31.37;97313.34;4912912;29;20058;-75
2022/10/19 13:13:57;;;;;;;0.10;0.10;;;;;;;29.54;30.15;97295.84;4916553;28;20047;-75
2022/10/19 13:17:00;;;;;;;0.10;0.10;;;;;;;29.88;28.11;97305.41;4917360;29;20515;-76
2022/10/19 13:19:46;;;;;;;0.10;0.10;;;;;;;30.26;29.82;97298.53;4887257;29;20086;-74
2022/10/19 13:22:31;;;;;;;0.10;0.10;;;;;;;30.87;27.25;97296.06;4916248;29;20527;-74
2022/10/19 13:25:27;;;;;;;0.10;0.10;;;;;;;30.51;27.00;97288.91;4912639;29;20095;-77